Oak Harbor, Ohio
Current Conditions -  °F | °C
As of 1:53 AM on Sunday 26 Oct 2014 (Local Time) from KPCW Reporting Station
Clear Clear  
Wind Chill: 56°   Ceiling: Unl
Heat Index: 56°   Visibility: 10mi
Dew Point: 39°   Wind: 12mph
Humidity: 53%   Direction: 290°WNW
Pressure: 29.83"   Gusts: NA
Location:  41.51°N, 83.15°W
Report Text: KPCW 260553Z AUTO 29010KT 10SM CLR 13/04 A2983 RMK AO2 55001 T01330038 $
Loading
Personal Weather Stations






























Interactive Weather Map
Tropical Storm Tracking
New forecast layout! Learn more

10-Day Weather Forecast

Advertisements
Track Severe Weather on mobile